createdAt,value
2022-08-22T00:01:37.917Z,24.06
2022-08-22T00:03:10.647Z,24.38
2022-08-22T00:03:10.808Z,24.43
2022-08-22T00:04:26.422Z,24.05
2022-08-22T00:07:19.477Z,24.05
2022-08-22T00:10:12.699Z,24.06
2022-08-22T00:13:07.885Z,24.03
2022-08-22T00:15:44.852Z,24.05
2022-08-22T00:18:20.475Z,24.04
2022-08-22T00:21:20.894Z,24.05
2022-08-22T00:23:51.523Z,24.09
2022-08-22T00:26:31.325Z,24.06
2022-08-22T00:29:05.346Z,24.00
2022-08-22T00:31:40.639Z,23.98
2022-08-22T00:34:14.659Z,23.97
2022-08-22T00:36:48.193Z,23.97
2022-08-22T00:39:47.488Z,23.96
2022-08-22T00:42:29.412Z,23.95
2022-08-22T00:45:17.274Z,23.97
2022-08-22T00:47:46.938Z,23.94
2022-08-22T00:50:28.810Z,23.93
2022-08-22T00:53:17.210Z,23.91
2022-08-22T00:55:59.174Z,23.89
2022-08-22T00:58:51.307Z,23.87
2022-08-22T01:01:27.261Z,23.85
2022-08-22T01:04:07.602Z,23.86
2022-08-22T01:06:37.075Z,23.86
2022-08-22T01:09:22.629Z,23.86
2022-08-22T01:12:15.497Z,23.83
2022-08-22T01:15:07.441Z,23.82
2022-08-22T01:17:52.885Z,23.79
2022-08-22T01:20:58.272Z,23.83
2022-08-22T01:23:37.177Z,23.79
2022-08-22T01:26:26.815Z,23.78
2022-08-22T01:29:19.512Z,23.79
2022-08-22T01:32:32.186Z,23.77
2022-08-22T01:35:24.765Z,23.75
2022-08-22T01:38:09.517Z,23.75
2022-08-22T01:41:06.689Z,23.75
2022-08-22T01:43:59.670Z,23.72
2022-08-22T01:46:55.051Z,23.68
2022-08-22T01:49:27.901Z,23.68
2022-08-22T01:52:09.891Z,23.61
2022-08-22T01:54:59.067Z,23.58
2022-08-22T01:57:26.839Z,23.60
2022-08-22T01:59:59.798Z,23.56
2022-08-22T02:02:59.242Z,23.53
2022-08-22T02:05:40.067Z,23.51
2022-08-22T02:08:30.190Z,23.49
2022-08-22T02:11:12.098Z,23.47
2022-08-22T02:13:54.651Z,23.43
2022-08-22T02:16:33.117Z,23.38
2022-08-22T02:19:05.058Z,23.39
2022-08-22T02:21:45.132Z,23.35
2022-08-22T02:24:33.115Z,23.33
2022-08-22T02:27:13.363Z,23.29
2022-08-22T02:29:50.481Z,23.25
2022-08-22T02:32:25.386Z,23.21
2022-08-22T02:35:09.040Z,23.23
2022-08-22T02:37:54.583Z,23.20
2022-08-22T02:40:39.374Z,23.17
2022-08-22T02:43:21.224Z,23.21
2022-08-22T02:45:57.782Z,23.15
2022-08-22T02:48:55.954Z,23.12
2022-08-22T02:51:36.311Z,23.11
2022-08-22T02:54:14.491Z,23.07
2022-08-22T02:56:48.538Z,23.05
2022-08-22T02:59:27.563Z,23.09
2022-08-22T03:01:55.706Z,23.06
2022-08-22T03:04:45.335Z,23.01
2022-08-22T03:07:26.913Z,22.92
2022-08-22T03:10:03.831Z,22.96
2022-08-22T03:12:41.931Z,22.96
2022-08-22T03:15:31.611Z,22.93
2022-08-22T03:18:19.763Z,22.86
2022-08-22T03:20:56.915Z,22.93
2022-08-22T03:23:38.936Z,22.94
2022-08-22T03:26:25.092Z,22.99
2022-08-22T03:28:59.866Z,23.07
2022-08-22T03:31:29.429Z,23.14
2022-08-22T03:34:22.262Z,23.22
2022-08-22T03:37:25.115Z,23.31
2022-08-22T03:39:55.676Z,23.40
2022-08-22T03:42:50.135Z,23.49
2022-08-22T03:45:44.894Z,23.61
2022-08-22T03:48:40.776Z,23.70
2022-08-22T03:51:40.510Z,23.84
2022-08-22T03:54:22.563Z,23.96
2022-08-22T03:57:09.824Z,24.10
2022-08-22T03:59:42.770Z,24.21
2022-08-22T04:02:42.904Z,24.34
2022-08-22T04:05:53.363Z,24.52
2022-08-22T04:08:26.519Z,24.69
2022-08-22T04:11:05.458Z,24.82
2022-08-22T04:14:09.716Z,24.99
2022-08-22T04:16:57.764Z,25.14
2022-08-22T04:19:55.038Z,25.30
2022-08-22T04:22:56.808Z,25.45
2022-08-22T04:25:45.457Z,25.59
2022-08-22T04:28:31.735Z,25.74
2022-08-22T04:31:17.949Z,25.93
2022-08-22T04:33:51.946Z,26.07
2022-08-22T04:36:45.104Z,26.16
2022-08-22T04:39:40.941Z,26.35
2022-08-22T04:42:32.182Z,26.48
2022-08-22T04:45:12.829Z,26.62
2022-08-22T04:47:54.013Z,26.71
2022-08-22T04:50:46.046Z,26.83
2022-08-22T04:53:34.449Z,27.00
2022-08-22T04:56:25.361Z,27.13
2022-08-22T04:58:59.939Z,27.27
2022-08-22T05:01:53.558Z,27.42
2022-08-22T05:04:28.513Z,27.57
2022-08-22T05:07:20.757Z,27.68
2022-08-22T05:09:53.047Z,27.82
2022-08-22T05:12:29.146Z,27.92
2022-08-22T05:15:02.983Z,28.02
2022-08-22T05:17:32.043Z,28.15
2022-08-22T05:20:06.452Z,28.28
2022-08-22T05:22:40.189Z,28.42
2022-08-22T05:25:11.974Z,28.52
2022-08-22T05:27:48.668Z,28.60
2022-08-22T05:30:27.407Z,28.70
2022-08-22T05:33:14.771Z,28.76
2022-08-22T05:35:49.676Z,28.84
2022-08-22T05:38:23.457Z,28.96
2022-08-22T05:40:56.799Z,29.05
2022-08-22T05:43:25.813Z,29.20
2022-08-22T05:45:57.719Z,29.26
2022-08-22T05:48:56.458Z,29.34
2022-08-22T05:51:39.835Z,29.41
2022-08-22T05:54:14.589Z,29.55
2022-08-22T05:57:09.991Z,29.67
2022-08-22T05:59:41.858Z,29.82
2022-08-22T06:02:14.533Z,29.94
2022-08-22T06:04:55.446Z,29.98
2022-08-22T06:07:49.072Z,30.08
2022-08-22T06:10:27.986Z,30.18
2022-08-22T06:13:23.559Z,30.29
2022-08-22T06:16:00.133Z,30.40
2022-08-22T06:18:28.056Z,30.50
2022-08-22T06:21:10.270Z,30.60
2022-08-22T06:23:46.303Z,30.71
2022-08-22T06:26:21.161Z,30.83
2022-08-22T06:28:54.509Z,30.95
2022-08-22T06:31:32.998Z,31.03
2022-08-22T06:34:12.071Z,31.08
2022-08-22T06:36:41.647Z,31.15
2022-08-22T06:39:21.288Z,31.31
2022-08-22T06:42:02.566Z,31.41
2022-08-22T06:44:53.773Z,31.53
2022-08-22T06:47:28.832Z,31.61
2022-08-22T06:50:20.822Z,31.67
2022-08-22T06:53:01.528Z,31.71
2022-08-22T06:55:30.426Z,31.79
2022-08-22T06:58:02.436Z,31.86
2022-08-22T07:00:33.404Z,31.98
2022-08-22T07:03:42.621Z,32.08
2022-08-22T07:06:16.156Z,32.22
2022-08-22T07:08:43.690Z,32.30
2022-08-22T07:11:22.645Z,32.29
2022-08-22T07:14:06.608Z,32.35
2022-08-22T07:16:44.927Z,32.37
2022-08-22T07:19:38.242Z,32.55
2022-08-22T07:22:14.723Z,32.59
2022-08-22T07:24:50.682Z,32.53
2022-08-22T07:27:42.047Z,32.66
2022-08-22T07:30:13.186Z,32.74
2022-08-22T07:32:58.835Z,32.80
2022-08-22T07:35:53.299Z,32.84
2022-08-22T07:38:37.243Z,32.92
2022-08-22T07:41:17.227Z,33.02
2022-08-22T07:43:59.632Z,33.11
2022-08-22T07:46:41.722Z,33.17
2022-08-22T07:49:53.206Z,33.20
2022-08-22T07:52:21.773Z,33.13
2022-08-22T07:54:57.030Z,33.12
2022-08-22T07:57:32.829Z,33.13
2022-08-22T08:00:02.099Z,33.11
2022-08-22T08:02:29.365Z,33.16
2022-08-22T08:05:00.291Z,33.17
2022-08-22T08:07:29.165Z,33.27
2022-08-22T08:10:03.011Z,33.36
2022-08-22T08:12:39.436Z,33.38
2022-08-22T08:15:15.783Z,33.38
2022-08-22T08:17:44.691Z,33.41
2022-08-22T08:20:15.238Z,33.46
2022-08-22T08:22:45.969Z,33.48
2022-08-22T08:25:19.897Z,33.51
2022-08-22T08:27:50.287Z,33.59
2022-08-22T08:30:23.351Z,33.66
2022-08-22T08:32:57.603Z,33.69
2022-08-22T08:36:02.735Z,33.80
2022-08-22T08:38:38.231Z,33.98
2022-08-22T08:41:22.774Z,34.00
2022-08-22T08:43:49.753Z,34.00
2022-08-22T08:46:55.540Z,34.01
2022-08-22T08:49:42.165Z,34.06
2022-08-22T08:52:42.197Z,34.09
2022-08-22T08:55:30.921Z,34.12
2022-08-22T08:58:40.785Z,34.06
2022-08-22T09:01:31.961Z,34.02
2022-08-22T09:04:19.427Z,34.15
2022-08-22T09:06:52.804Z,34.13
2022-08-22T09:09:58.079Z,34.28
2022-08-22T09:12:24.915Z,34.32
2022-08-22T09:15:15.758Z,34.32
2022-08-22T09:18:00.779Z,34.23
2022-08-22T09:21:13.732Z,34.17
2022-08-22T09:24:04.632Z,34.18
2022-08-22T09:26:52.604Z,34.22
2022-08-22T09:29:51.368Z,34.30
2022-08-22T09:32:37.090Z,34.36
2022-08-22T09:35:16.203Z,34.44
2022-08-22T09:38:23.391Z,34.55
2022-08-22T09:41:24.872Z,34.74
2022-08-22T09:44:03.905Z,34.79
2022-08-22T09:46:55.223Z,34.88
2022-08-22T09:50:18.153Z,34.80
2022-08-22T09:53:11.203Z,34.73
2022-08-22T09:55:40.715Z,34.78
2022-08-22T09:58:41.598Z,34.83
2022-08-22T10:01:32.871Z,34.83
2022-08-22T10:04:28.984Z,34.73
2022-08-22T10:06:58.651Z,34.58
2022-08-22T10:09:34.472Z,34.65
2022-08-22T10:12:12.320Z,34.69
2022-08-22T10:15:09.895Z,34.68
2022-08-22T10:17:51.982Z,34.68
2022-08-22T10:20:55.345Z,34.70
2022-08-22T10:23:35.915Z,34.77
2022-08-22T10:26:02.908Z,34.75
2022-08-22T10:28:41.497Z,34.76
2022-08-22T10:31:25.717Z,34.72
2022-08-22T10:34:22.720Z,34.59
2022-08-22T10:37:30.860Z,34.56
2022-08-22T10:39:59.113Z,34.58
2022-08-22T10:42:36.522Z,34.59
2022-08-22T10:45:37.275Z,34.71
2022-08-22T10:48:08.943Z,34.83
2022-08-22T10:50:39.914Z,34.79
2022-08-22T10:53:29.454Z,34.77
2022-08-22T10:56:25.169Z,34.81
2022-08-22T10:59:23.237Z,34.89
2022-08-22T11:02:07.256Z,34.88
2022-08-22T11:05:03.386Z,34.93
2022-08-22T11:08:07.441Z,34.83
2022-08-22T11:11:14.942Z,34.77
2022-08-22T11:14:21.834Z,34.74
2022-08-22T11:17:27.525Z,34.68
2022-08-22T11:20:14.417Z,34.59
2022-08-22T11:23:16.878Z,34.56
2022-08-22T11:25:53.921Z,34.50
2022-08-22T11:28:45.342Z,34.47
2022-08-22T11:31:51.983Z,34.48
2022-08-22T11:34:50.199Z,34.52
2022-08-22T11:37:42.879Z,34.40
2022-08-22T11:40:43.137Z,34.23
2022-08-22T11:43:34.408Z,34.12
2022-08-22T11:46:36.387Z,34.06
2022-08-22T11:49:44.949Z,34.16
2022-08-22T11:52:12.590Z,34.29
2022-08-22T11:54:53.210Z,34.31
2022-08-22T11:57:44.718Z,34.15
2022-08-22T12:00:34.954Z,34.13
2022-08-22T12:03:46.194Z,34.32
2022-08-22T12:06:46.917Z,34.40
2022-08-22T12:09:30.151Z,34.36
2022-08-22T12:12:17.103Z,34.31
2022-08-22T12:15:19.597Z,34.20
2022-08-22T12:18:20.199Z,34.09
2022-08-22T12:21:07.590Z,34.00
2022-08-22T12:24:32.420Z,33.94
2022-08-22T12:27:28.704Z,33.91
2022-08-22T12:30:13.687Z,33.94
2022-08-22T12:33:21.928Z,34.09
2022-08-22T12:35:58.513Z,34.21
2022-08-22T12:38:40.801Z,34.29
2022-08-22T12:41:35.581Z,34.31
2022-08-22T12:44:17.163Z,34.33
2022-08-22T12:47:09.218Z,34.46
2022-08-22T12:50:26.901Z,34.49
2022-08-22T12:53:19.645Z,34.62
2022-08-22T12:55:53.297Z,34.66
2022-08-22T12:58:51.460Z,34.66
2022-08-22T13:01:19.926Z,34.61
2022-08-22T13:04:03.864Z,34.54
2022-08-22T13:06:33.844Z,34.46
2022-08-22T13:09:02.715Z,34.31
2022-08-22T13:11:41.776Z,34.21
2022-08-22T13:14:19.601Z,34.09
2022-08-22T13:16:55.124Z,33.99
2022-08-22T13:19:27.306Z,33.82
2022-08-22T13:22:10.434Z,33.75
2022-08-22T13:24:51.705Z,33.86
2022-08-22T13:27:50.594Z,33.91
2022-08-22T13:30:26.863Z,33.89
2022-08-22T13:33:12.974Z,33.86
2022-08-22T13:35:44.472Z,33.86
2022-08-22T13:38:17.907Z,33.88
2022-08-22T13:40:54.385Z,33.85
2022-08-22T13:43:26.077Z,33.90
2022-08-22T13:46:07.119Z,33.82
2022-08-22T13:48:50.615Z,33.78
2022-08-22T13:51:39.986Z,33.70
2022-08-22T13:54:15.811Z,33.60
2022-08-22T13:56:56.415Z,33.54
2022-08-22T13:59:50.827Z,33.42
2022-08-22T14:02:31.038Z,33.31
2022-08-22T14:05:07.608Z,33.18
2022-08-22T14:07:59.386Z,33.07
2022-08-22T14:10:33.505Z,32.98
2022-08-22T14:13:00.516Z,33.06
2022-08-22T14:15:44.947Z,33.00
2022-08-22T14:18:30.327Z,33.01
2022-08-22T14:21:26.226Z,33.01
2022-08-22T14:23:57.992Z,32.86
2022-08-22T14:27:05.492Z,32.95
2022-08-22T14:29:50.811Z,33.14
2022-08-22T14:32:26.677Z,33.22
2022-08-22T14:35:02.936Z,33.21
2022-08-22T14:37:35.864Z,33.18
2022-08-22T14:40:12.995Z,33.01
2022-08-22T14:43:05.404Z,32.86
2022-08-22T14:45:39.452Z,32.72
2022-08-22T14:48:29.584Z,32.58
2022-08-22T14:51:10.462Z,32.37
2022-08-22T14:53:39.705Z,32.35
2022-08-22T14:56:12.028Z,32.27
2022-08-22T14:59:04.603Z,32.23
2022-08-22T15:01:51.162Z,32.20
2022-08-22T15:04:29.762Z,32.14
2022-08-22T15:06:58.781Z,32.13
2022-08-22T15:09:50.710Z,32.07
2022-08-22T15:12:40.401Z,32.04
2022-08-22T15:15:15.706Z,32.01
2022-08-22T15:17:46.028Z,31.93
2022-08-22T15:20:27.649Z,31.91
2022-08-22T15:22:59.135Z,31.97
2022-08-22T15:25:31.988Z,31.95
2022-08-22T15:28:20.811Z,31.97
2022-08-22T15:30:54.203Z,31.96
2022-08-22T15:33:45.576Z,31.91
2022-08-22T15:36:21.374Z,31.82
2022-08-22T15:38:54.815Z,31.72
2022-08-22T15:41:36.212Z,31.66
2022-08-22T15:44:14.890Z,31.56
2022-08-22T15:47:03.175Z,31.50
2022-08-22T15:49:35.500Z,31.44
2022-08-22T15:52:02.296Z,31.43
2022-08-22T15:54:59.304Z,31.38
2022-08-22T15:57:37.402Z,31.32
2022-08-22T16:00:23.116Z,31.30
2022-08-22T16:03:28.619Z,31.27
2022-08-22T16:06:00.416Z,31.22
2022-08-22T16:08:45.389Z,31.13
2022-08-22T16:11:33.780Z,31.12
2022-08-22T16:14:23.578Z,31.08
2022-08-22T16:16:50.794Z,31.02
2022-08-22T16:19:22.222Z,30.95
2022-08-22T16:21:51.837Z,30.96
2022-08-22T16:24:18.635Z,30.93
2022-08-22T16:26:46.510Z,30.93
2022-08-22T16:29:17.950Z,30.85
2022-08-22T16:31:44.980Z,30.73
2022-08-22T16:34:17.720Z,30.59
2022-08-22T16:37:13.496Z,30.49
2022-08-22T16:39:45.555Z,30.44
2022-08-22T16:42:15.156Z,30.36
2022-08-22T16:45:10.449Z,30.36
2022-08-22T16:47:42.443Z,30.30
2022-08-22T16:50:18.404Z,30.27
2022-08-22T16:53:16.280Z,30.17
2022-08-22T16:55:46.264Z,30.06
2022-08-22T16:58:20.226Z,30.00
2022-08-22T17:01:01.959Z,29.96
2022-08-22T17:03:47.510Z,29.84
2022-08-22T17:06:48.518Z,29.78
2022-08-22T17:09:59.868Z,29.67
2022-08-22T17:12:51.755Z,29.56
2022-08-22T17:15:51.966Z,29.49
2022-08-22T17:18:27.223Z,29.40
2022-08-22T17:21:06.223Z,29.36
2022-08-22T17:23:51.127Z,29.30
2022-08-22T17:26:31.518Z,29.26
2022-08-22T17:29:17.148Z,29.22
2022-08-22T17:32:10.158Z,29.13
2022-08-22T17:35:16.924Z,29.08
2022-08-22T17:37:55.886Z,29.05
2022-08-22T17:40:38.082Z,28.94
2022-08-22T17:43:13.879Z,28.90
2022-08-22T17:46:21.688Z,28.87
2022-08-22T17:49:48.597Z,28.72
2022-08-22T17:52:20.744Z,28.68
2022-08-22T17:55:01.294Z,28.60
2022-08-22T17:57:33.974Z,28.55
2022-08-22T18:00:16.795Z,28.50
2022-08-22T18:03:07.621Z,28.45
2022-08-22T18:05:49.748Z,28.43
2022-08-22T18:11:09.180Z,28.34
2022-08-22T18:14:14.299Z,28.26
2022-08-22T18:16:47.895Z,28.21
2022-08-22T18:19:36.830Z,28.17
2022-08-22T18:22:13.167Z,28.14
2022-08-22T18:25:17.593Z,28.07
2022-08-22T18:27:52.897Z,28.02
2022-08-22T18:30:31.761Z,27.99
2022-08-22T18:33:18.950Z,27.94
2022-08-22T18:35:54.610Z,27.93
2022-08-22T18:38:25.454Z,27.93
2022-08-22T18:41:13.208Z,27.91
2022-08-22T18:43:47.807Z,27.86
2022-08-22T18:46:32.465Z,27.81
2022-08-22T18:49:33.704Z,27.78
2022-08-22T18:52:06.721Z,27.73
2022-08-22T18:54:59.101Z,27.70
2022-08-22T18:57:46.913Z,27.67
2022-08-22T19:00:40.256Z,27.60
2022-08-22T19:03:42.449Z,27.55
2022-08-22T19:06:21.309Z,27.52
2022-08-22T19:09:37.062Z,27.51
2022-08-22T19:12:40.871Z,27.40
2022-08-22T19:15:31.479Z,27.36
2022-08-22T19:17:59.186Z,27.34
2022-08-22T19:20:36.603Z,27.29
2022-08-22T19:23:34.597Z,27.31
2022-08-22T19:26:32.016Z,27.30
2022-08-22T19:29:19.046Z,27.26
2022-08-22T19:32:12.983Z,27.27
2022-08-22T19:34:47.073Z,27.29
2022-08-22T19:37:33.224Z,27.25
2022-08-22T19:40:11.819Z,27.25
2022-08-22T19:42:41.299Z,27.19
2022-08-22T19:45:20.396Z,27.17
2022-08-22T19:48:13.213Z,27.11
2022-08-22T19:50:41.247Z,27.05
2022-08-22T19:53:23.313Z,27.02
2022-08-22T19:56:20.364Z,27.03
2022-08-22T19:59:08.557Z,27.05
2022-08-22T20:01:51.336Z,27.14
2022-08-22T20:04:49.637Z,27.12
2022-08-22T20:07:43.375Z,27.14
2022-08-22T20:10:19.439Z,27.21
2022-08-22T20:13:07.910Z,27.30
2022-08-22T20:16:03.835Z,27.31
2022-08-22T20:19:07.244Z,27.30
2022-08-22T20:21:50.490Z,27.27
2022-08-22T20:24:39.998Z,27.30
2022-08-22T20:27:17.537Z,27.36
2022-08-22T20:29:50.186Z,27.33
2022-08-22T20:32:19.708Z,27.30
2022-08-22T20:34:50.476Z,27.25
2022-08-22T20:37:40.176Z,27.23
2022-08-22T20:40:56.774Z,27.18
2022-08-22T20:43:35.685Z,27.15
2022-08-22T20:46:22.694Z,27.13
2022-08-22T20:48:54.418Z,27.09
2022-08-22T20:51:24.416Z,27.11
2022-08-22T20:53:58.378Z,27.09
2022-08-22T20:56:37.411Z,27.02
2022-08-22T20:59:27.266Z,26.98
2022-08-22T21:02:12.469Z,26.93
2022-08-22T21:05:03.975Z,26.91
2022-08-22T21:07:32.469Z,26.84
2022-08-22T21:10:06.389Z,26.82
2022-08-22T21:12:33.210Z,26.75
2022-08-22T21:15:00.023Z,26.72
2022-08-22T21:17:34.423Z,26.71
2022-08-22T21:20:39.213Z,26.74
2022-08-22T21:23:13.069Z,26.66
2022-08-22T21:25:51.805Z,26.68
2022-08-22T21:28:33.008Z,26.65
2022-08-22T21:31:07.514Z,26.62
2022-08-22T21:33:34.680Z,26.65
2022-08-22T21:36:01.633Z,26.64
2022-08-22T21:38:28.596Z,26.65
2022-08-22T21:41:02.247Z,26.61
2022-08-22T21:43:37.959Z,26.55
2022-08-22T21:46:06.378Z,26.52
2022-08-22T21:48:36.132Z,26.56
2022-08-22T21:51:23.579Z,26.53
2022-08-22T21:53:53.359Z,26.52
2022-08-22T21:56:37.611Z,26.51
2022-08-22T21:59:51.773Z,26.49
2022-08-22T22:02:39.702Z,26.34
2022-08-22T22:05:12.773Z,26.30
2022-08-22T22:07:41.876Z,26.26
2022-08-22T22:10:12.019Z,26.25
2022-08-22T22:12:41.910Z,26.20
2022-08-22T22:15:12.738Z,26.19
2022-08-22T22:17:39.685Z,26.13
2022-08-22T22:20:07.077Z,26.12
2022-08-22T22:22:33.997Z,26.06
2022-08-22T22:25:05.159Z,25.99
2022-08-22T22:27:52.258Z,25.98
2022-08-22T22:30:20.821Z,25.95
2022-08-22T22:32:49.352Z,25.95
2022-08-22T22:35:19.615Z,25.92
2022-08-22T22:37:47.066Z,25.91
2022-08-22T22:40:14.388Z,25.94
2022-08-22T22:42:41.767Z,25.90
2022-08-22T22:45:09.595Z,25.81
2022-08-22T22:47:36.932Z,25.78
2022-08-22T22:50:05.009Z,25.73
2022-08-22T22:52:31.859Z,25.72
2022-08-22T22:54:58.693Z,25.72
2022-08-22T22:57:25.839Z,25.66
2022-08-22T22:59:54.198Z,25.62
2022-08-22T23:02:22.747Z,25.63
2022-08-22T23:04:55.314Z,25.60
2022-08-22T23:07:24.480Z,25.55
2022-08-22T23:09:55.712Z,25.53
2022-08-22T23:12:26.913Z,25.48
2022-08-22T23:14:54.102Z,25.50
2022-08-22T23:17:21.195Z,25.49
2022-08-22T23:19:48.264Z,25.47
2022-08-22T23:22:15.180Z,25.44
2022-08-22T23:24:42.347Z,25.42
2022-08-22T23:27:11.139Z,25.34
2022-08-22T23:29:41.918Z,25.33
2022-08-22T23:32:13.924Z,25.36
2022-08-22T23:34:44.636Z,25.32
2022-08-22T23:37:13.596Z,25.23
2022-08-22T23:39:41.123Z,25.16
2022-08-22T23:42:09.521Z,25.19
2022-08-22T23:44:38.807Z,25.13
2022-08-22T23:47:07.767Z,25.15
2022-08-22T23:49:35.673Z,25.18
2022-08-22T23:52:03.288Z,25.22
2022-08-22T23:54:30.227Z,25.15
2022-08-22T23:57:00.680Z,25.07
2022-08-22T23:59:33.954Z,25.08
